Time;durP1;ratioP1;P1;durP2;ratioP2;P2;SDS_P1;SDS_P2;PMS_P1;PMS_P2;Temp;Humidity;BMP_temperature;BMP_pressure;BME280_temperature;BME280_humidity;BME280_pressure;Samples;Min_cycle;Max_cycle;Signal;HPM_P1;HPM_P2
2022/08/28 00:00:17;;;;;;;3.88;2.47;;;;;;;;;;5003787;28;20050;-59
2022/08/28 00:02:45;;;;;;;6.93;2.58;;;;;;;;;;5000695;28;20038;-59
2022/08/28 00:05:12;;;;;;;3.63;2.50;;;;;;;;;;5002701;28;20053;-60
2022/08/28 00:07:38;;;;;;;5.43;2.50;;;;;;;;;;5006052;28;20115;-60
2022/08/28 00:10:06;;;;;;;3.45;2.45;;;;;;;;;;5002203;28;20065;-62
2022/08/28 00:12:31;;;;;;;3.75;2.50;;;;;;;;;;5001713;28;20057;-59
2022/08/28 00:14:57;;;;;;;4.18;2.35;;;;;;;;;;5005406;28;20052;-59
2022/08/28 00:17:22;;;;;;;5.63;2.70;;;;;;;;;;5001090;28;20488;-64
2022/08/28 00:19:48;;;;;;;3.83;2.30;;;;;;;;;;5002039;28;20044;-59
2022/08/28 00:22:13;;;;;;;6.40;2.20;;;;;;;;;;5002999;28;20042;-62
2022/08/28 00:24:39;;;;;;;4.78;2.50;;;;;;;;;;4998869;28;20054;-59
2022/08/28 00:29:49;;;;;;;4.63;2.72;;;;;;;;;;5003092;28;20064;-60
2022/08/28 00:32:15;;;;;;;2.60;2.28;;;;;;;;;;4986826;28;20045;-59
2022/08/28 00:34:40;;;;;;;3.22;2.28;;;;;;;;;;5003388;28;20040;-59
2022/08/28 00:37:06;;;;;;;3.50;2.67;;;;;;;;;;5003406;28;20030;-59
2022/08/28 00:39:32;;;;;;;4.10;2.55;;;;;;;;;;5004171;28;20058;-59
2022/08/28 00:41:57;;;;;;;4.22;2.47;;;;;;;;;;5000496;28;20038;-61
2022/08/28 00:44:24;;;;;;;3.35;2.17;;;;;;;;;;5003612;28;20104;-59
2022/08/28 00:46:52;;;;;;;4.43;2.50;;;;;;;;;;5002973;28;20076;-59
2022/08/28 00:49:39;;;;;;;2.63;2.40;;;;;;;;;;4991031;28;20030;-60
2022/08/28 00:52:10;;;;;;;4.00;2.40;;;;;;;;;;5001547;28;20042;-60
2022/08/28 00:54:50;;;;;;;3.42;2.50;;;;;;;;;;4999531;28;20046;-59
2022/08/28 00:57:22;;;;;;;3.70;2.35;;;;;;;;;;5005690;28;20515;-58
2022/08/28 00:59:48;;;;;;;3.47;2.38;;;;;;;;;;5007246;28;20069;-59
2022/08/28 01:02:15;;;;;;;3.20;2.38;;;;;;;;;;5006946;28;20561;-66
2022/08/28 01:04:43;;;;;;;2.80;2.10;;;;;;;;;;5003009;28;20033;-67
2022/08/28 01:07:13;;;;;;;7.00;2.30;;;;;;;;;;5005101;28;20423;-66
2022/08/28 01:09:43;;;;;;;2.90;1.85;;;;;;;;;;5006262;28;20068;-66
2022/08/28 01:12:14;;;;;;;4.45;2.20;;;;;;;;;;5006166;28;20058;-66
2022/08/28 01:14:41;;;;;;;4.93;2.50;;;;;;;;;;5004522;28;20046;-66
2022/08/28 01:17:08;;;;;;;4.05;2.20;;;;;;;;;;5002949;28;20054;-65
2022/08/28 01:19:39;;;;;;;5.68;2.60;;;;;;;;;;5007409;28;20025;-66
2022/08/28 01:22:28;;;;;;;4.05;2.35;;;;;;;;;;5005303;28;20092;-66
2022/08/28 01:24:57;;;;;;;2.95;2.10;;;;;;;;;;5002282;28;20045;-65
2022/08/28 01:27:22;;;;;;;3.28;2.30;;;;;;;;;;5005022;28;20140;-66
2022/08/28 01:29:48;;;;;;;3.00;2.33;;;;;;;;;;5002691;28;20085;-72
2022/08/28 01:32:30;;;;;;;4.63;2.50;;;;;;;;;;4999275;28;20050;-66
2022/08/28 01:34:55;;;;;;;2.80;1.90;;;;;;;;;;5001166;28;20099;-66
2022/08/28 01:37:20;;;;;;;4.97;2.33;;;;;;;;;;5003282;28;21319;-67
2022/08/28 01:39:46;;;;;;;5.43;2.47;;;;;;;;;;5003683;28;20049;-66
2022/08/28 01:42:12;;;;;;;2.95;2.33;;;;;;;;;;5002226;28;20057;-69
2022/08/28 01:44:38;;;;;;;2.63;1.98;;;;;;;;;;4988404;28;20054;-69
2022/08/28 01:47:03;;;;;;;3.25;2.10;;;;;;;;;;4987974;28;20046;-66
2022/08/28 01:49:29;;;;;;;3.53;2.28;;;;;;;;;;4986860;28;20116;-65
2022/08/28 01:51:56;;;;;;;4.15;2.22;;;;;;;;;;5005340;28;20046;-66
2022/08/28 01:54:22;;;;;;;6.60;2.28;;;;;;;;;;5004886;28;20046;-65
2022/08/28 01:56:47;;;;;;;3.03;2.30;;;;;;;;;;5007084;28;20042;-66
2022/08/28 01:59:14;;;;;;;5.43;2.00;;;;;;;;;;5007028;28;20121;-66
2022/08/28 02:01:41;;;;;;;3.50;2.30;;;;;;;;;;5000586;28;20034;-65
2022/08/28 02:04:06;;;;;;;6.93;2.13;;;;;;;;;;5000815;28;20057;-67
2022/08/28 02:06:32;;;;;;;5.45;2.30;;;;;;;;;;5002183;28;20038;-67
2022/08/28 02:08:59;;;;;;;4.25;2.20;;;;;;;;;;5004827;28;20061;-66
2022/08/28 02:11:25;;;;;;;2.92;2.03;;;;;;;;;;5000868;28;20060;-66
2022/08/28 02:13:52;;;;;;;3.72;2.35;;;;;;;;;;5006304;28;20034;-66
2022/08/28 02:16:18;;;;;;;4.75;2.33;;;;;;;;;;5004376;28;20168;-67
2022/08/28 02:18:43;;;;;;;4.05;2.33;;;;;;;;;;5008571;28;20501;-66
2022/08/28 02:21:09;;;;;;;3.63;2.22;;;;;;;;;;5002254;28;20046;-65
2022/08/28 02:23:38;;;;;;;2.63;2.03;;;;;;;;;;5003608;28;20137;-66
2022/08/28 02:26:03;;;;;;;4.18;2.80;;;;;;;;;;5006371;28;20057;-66
2022/08/28 02:28:29;;;;;;;4.53;2.40;;;;;;;;;;5011728;28;20029;-65
2022/08/28 02:30:55;;;;;;;3.05;2.03;;;;;;;;;;5008511;28;20038;-67
2022/08/28 02:33:20;;;;;;;4.35;2.30;;;;;;;;;;5007511;28;20108;-67
2022/08/28 02:35:45;;;;;;;3.78;2.00;;;;;;;;;;5005405;28;20038;-66
2022/08/28 02:38:11;;;;;;;2.97;2.03;;;;;;;;;;5002615;28;20038;-66
2022/08/28 02:40:36;;;;;;;3.28;2.20;;;;;;;;;;5007725;28;20038;-67
2022/08/28 02:43:04;;;;;;;3.47;2.20;;;;;;;;;;5010539;28;20057;-67
2022/08/28 02:45:30;;;;;;;3.08;2.13;;;;;;;;;;5009071;28;20054;-67
2022/08/28 02:47:55;;;;;;;4.95;2.47;;;;;;;;;;5007467;28;20042;-66
2022/08/28 02:50:21;;;;;;;5.68;1.98;;;;;;;;;;5008098;28;20096;-66
2022/08/28 02:52:47;;;;;;;4.03;2.00;;;;;;;;;;5004940;28;20405;-66
2022/08/28 02:55:14;;;;;;;2.63;2.15;;;;;;;;;;5008863;28;20048;-66
2022/08/28 02:57:41;;;;;;;3.58;1.92;;;;;;;;;;5007901;28;20042;-66
2022/08/28 03:00:11;;;;;;;5.30;2.38;;;;;;;;;;5008337;28;20045;-66
2022/08/28 03:02:37;;;;;;;6.38;2.13;;;;;;;;;;5006062;28;20054;-67
2022/08/28 03:05:03;;;;;;;3.60;1.95;;;;;;;;;;5005573;28;20476;-68
2022/08/28 03:07:29;;;;;;;3.72;2.10;;;;;;;;;;5007146;28;20095;-65
2022/08/28 03:09:54;;;;;;;5.75;2.30;;;;;;;;;;5003855;28;20069;-65
2022/08/28 03:12:22;;;;;;;5.05;2.17;;;;;;;;;;5006113;28;20500;-67
2022/08/28 03:14:52;;;;;;;3.55;1.77;;;;;;;;;;5009142;28;20060;-68
2022/08/28 03:17:20;;;;;;;3.20;1.80;;;;;;;;;;5006397;28;20049;-66
2022/08/28 03:19:46;;;;;;;3.70;2.20;;;;;;;;;;5005740;28;20030;-66
2022/08/28 03:22:11;;;;;;;4.55;2.28;;;;;;;;;;5005064;28;20060;-66
2022/08/28 03:24:37;;;;;;;5.72;2.10;;;;;;;;;;5006297;28;20495;-66
2022/08/28 03:27:04;;;;;;;3.50;2.17;;;;;;;;;;5006526;28;20415;-66
2022/08/28 03:29:30;;;;;;;4.38;2.35;;;;;;;;;;5006776;28;20543;-66
2022/08/28 03:31:55;;;;;;;3.53;2.22;;;;;;;;;;4987785;28;20036;-67
2022/08/28 03:34:21;;;;;;;3.72;2.00;;;;;;;;;;5004855;28;20033;-66
2022/08/28 03:36:46;;;;;;;5.05;2.20;;;;;;;;;;5008919;28;20103;-66
2022/08/28 03:39:12;;;;;;;3.38;2.00;;;;;;;;;;5006254;28;20104;-67
2022/08/28 03:41:39;;;;;;;6.65;2.40;;;;;;;;;;5010075;28;20042;-66
2022/08/28 03:44:04;;;;;;;3.35;2.10;;;;;;;;;;5003561;28;20824;-66
2022/08/28 03:46:31;;;;;;;7.47;2.35;;;;;;;;;;5009461;28;20124;-66
2022/08/28 03:48:58;;;;;;;4.97;2.10;;;;;;;;;;5008755;28;20056;-66
2022/08/28 03:51:27;;;;;;;5.63;2.20;;;;;;;;;;5007748;28;20506;-66
2022/08/28 03:53:53;;;;;;;3.63;1.92;;;;;;;;;;5003591;28;20054;-66
2022/08/28 03:56:22;;;;;;;3.88;1.90;;;;;;;;;;5008838;28;20063;-66
2022/08/28 03:58:50;;;;;;;6.65;2.25;;;;;;;;;;5007868;28;20037;-66
2022/08/28 04:01:17;;;;;;;5.53;2.10;;;;;;;;;;5004459;28;20247;-66
2022/08/28 04:03:44;;;;;;;6.82;1.80;;;;;;;;;;5012563;28;20081;-66
2022/08/28 04:06:09;;;;;;;7.30;2.05;;;;;;;;;;5003832;28;20269;-66
2022/08/28 04:08:36;;;;;;;4.45;1.95;;;;;;;;;;5004247;28;20594;-66
2022/08/28 04:11:01;;;;;;;7.10;2.00;;;;;;;;;;5002061;28;20046;-66
2022/08/28 04:13:27;;;;;;;6.30;1.85;;;;;;;;;;5003560;28;20498;-67
2022/08/28 04:16:06;;;;;;;7.05;1.92;;;;;;;;;;5003497;28;20128;-67
2022/08/28 04:18:32;;;;;;;6.93;2.30;;;;;;;;;;5000125;28;20041;-66
2022/08/28 04:21:04;;;;;;;3.25;1.80;;;;;;;;;;5011765;28;20142;-67
2022/08/28 04:23:30;;;;;;;;;;;;;;;;;;5010415;28;20053;-66
2022/08/28 04:25:56;;;;;;;5.82;2.03;;;;;;;;;;5000015;28;19917;-66
2022/08/28 04:28:22;;;;;;;3.80;1.85;;;;;;;;;;4987655;28;20037;-67
2022/08/28 04:30:53;;;;;;;8.70;2.47;;;;;;;;;;5003599;28;20095;-66
2022/08/28 04:33:19;;;;;;;9.15;2.13;;;;;;;;;;5009087;28;20077;-66
2022/08/28 04:35:45;;;;;;;5.13;1.65;;;;;;;;;;5002496;28;20065;-68
2022/08/28 04:38:10;;;;;;;5.45;1.88;;;;;;;;;;5009853;28;20054;-68
2022/08/28 04:40:38;;;;;;;8.05;1.70;;;;;;;;;;5005908;28;20113;-67
2022/08/28 04:43:04;;;;;;;9.07;1.95;;;;;;;;;;5003132;28;20054;-68
2022/08/28 04:45:30;;;;;;;7.82;2.00;;;;;;;;;;5002830;28;20096;-67
2022/08/28 04:47:56;;;;;;;4.03;1.70;;;;;;;;;;5002179;28;20610;-67
2022/08/28 04:50:21;;;;;;;4.93;1.75;;;;;;;;;;5002584;28;20049;-67
2022/08/28 04:52:46;;;;;;;6.03;1.90;;;;;;;;;;5004941;28;20056;-67
2022/08/28 04:55:13;;;;;;;4.50;1.77;;;;;;;;;;5003930;28;20029;-68
2022/08/28 04:57:38;;;;;;;4.72;1.70;;;;;;;;;;5006749;28;20042;-66
2022/08/28 05:00:06;;;;;;;7.93;1.63;;;;;;;;;;5007644;28;20100;-67
2022/08/28 05:02:31;;;;;;;6.93;1.80;;;;;;;;;;5006283;28;20384;-67
2022/08/28 05:04:57;;;;;;;7.30;2.15;;;;;;;;;;5004931;28;20103;-66
2022/08/28 05:07:22;;;;;;;4.38;1.77;;;;;;;;;;5006663;28;20037;-66
2022/08/28 05:09:51;;;;;;;8.57;1.85;;;;;;;;;;5007201;28;20058;-67
2022/08/28 05:12:18;;;;;;;9.98;2.10;;;;;;;;;;5003085;28;20100;-66
2022/08/28 05:14:43;;;;;;;6.43;1.92;;;;;;;;;;5007970;28;20041;-67
2022/08/28 05:17:12;;;;;;;7.03;1.90;;;;;;;;;;5004231;28;20052;-66
2022/08/28 05:19:38;;;;;;;4.75;1.80;;;;;;;;;;5000844;28;20026;-65
2022/08/28 05:22:04;;;;;;;10.77;2.55;;;;;;;;;;5005291;28;20383;-66
2022/08/28 05:24:29;;;;;;;10.65;2.10;;;;;;;;;;5005317;28;20069;-66
2022/08/28 05:26:55;;;;;;;7.43;2.08;;;;;;;;;;5002645;28;20049;-66
2022/08/28 05:29:21;;;;;;;5.68;1.90;;;;;;;;;;5005810;28;20053;-68
2022/08/28 05:31:46;;;;;;;5.97;1.98;;;;;;;;;;5001911;28;20087;-66
2022/08/28 05:34:14;;;;;;;4.30;1.73;;;;;;;;;;5006127;28;20022;-66
2022/08/28 05:36:40;;;;;;;6.88;1.77;;;;;;;;;;4997958;28;20810;-66
2022/08/28 05:39:09;;;;;;;5.18;1.55;;;;;;;;;;5004060;28;20085;-67
2022/08/28 05:41:36;;;;;;;8.75;2.00;;;;;;;;;;4998728;28;20089;-66
2022/08/28 05:44:05;;;;;;;6.82;1.70;;;;;;;;;;5004787;28;20053;-66
2022/08/28 05:46:31;;;;;;;5.20;1.70;;;;;;;;;;5005573;28;20030;-66
2022/08/28 05:48:59;;;;;;;4.72;1.67;;;;;;;;;;5003649;28;20050;-66
2022/08/28 05:51:25;;;;;;;7.57;2.00;;;;;;;;;;4999258;28;20101;-66
2022/08/28 05:53:52;;;;;;;7.97;2.30;;;;;;;;;;4990948;28;20620;-66
2022/08/28 05:56:30;;;;;;;7.18;1.90;;;;;;;;;;5001727;28;20066;-68
2022/08/28 05:59:00;;;;;;;5.93;1.77;;;;;;;;;;4994579;28;20041;-68
2022/08/28 06:01:31;;;;;;;6.10;1.70;;;;;;;;;;5004353;28;20109;-66
2022/08/28 06:04:07;;;;;;;7.82;2.20;;;;;;;;;;5010246;28;20045;-67
2022/08/28 06:06:34;;;;;;;8.85;2.00;;;;;;;;;;5004652;28;20065;-69
2022/08/28 06:09:04;;;;;;;4.75;1.60;;;;;;;;;;5005724;28;20062;-69
2022/08/28 06:11:30;;;;;;;6.50;1.77;;;;;;;;;;5002251;28;20100;-68
2022/08/28 06:14:00;;;;;;;5.63;1.65;;;;;;;;;;5008790;28;20392;-69
2022/08/28 06:16:26;;;;;;;8.40;1.95;;;;;;;;;;5008428;28;20415;-70
2022/08/28 06:18:52;;;;;;;4.68;1.90;;;;;;;;;;5006365;28;20045;-68
2022/08/28 06:21:17;;;;;;;4.10;1.95;;;;;;;;;;4998886;28;20510;-69
2022/08/28 06:23:43;;;;;;;6.35;1.92;;;;;;;;;;5011919;28;20045;-68
2022/08/28 06:26:08;;;;;;;7.82;1.83;;;;;;;;;;4992406;28;20049;-68
2022/08/28 06:28:34;;;;;;;5.47;1.63;;;;;;;;;;5007779;28;20558;-67
2022/08/28 06:31:02;;;;;;;6.38;1.60;;;;;;;;;;4996736;28;20584;-68
2022/08/28 06:33:27;;;;;;;6.07;2.03;;;;;;;;;;5007242;28;20050;-67
2022/08/28 06:35:54;;;;;;;2.60;1.40;;;;;;;;;;5012441;28;20041;-68
2022/08/28 06:38:22;;;;;;;4.10;1.77;;;;;;;;;;5010003;28;20072;-68
2022/08/28 06:40:52;;;;;;;7.05;1.70;;;;;;;;;;5010326;28;20291;-68
2022/08/28 06:43:20;;;;;;;7.85;1.90;;;;;;;;;;5003058;28;20030;-68
2022/08/28 06:45:47;;;;;;;4.95;2.10;;;;;;;;;;5008579;28;20038;-69
2022/08/28 06:48:15;;;;;;;8.43;2.00;;;;;;;;;;5004795;28;20089;-69
2022/08/28 06:50:44;;;;;;;8.20;1.95;;;;;;;;;;5007311;28;20080;-69
2022/08/28 06:53:13;;;;;;;6.28;1.92;;;;;;;;;;5005240;28;20057;-69
2022/08/28 06:55:39;;;;;;;4.00;1.50;;;;;;;;;;5008158;28;21244;-69
2022/08/28 06:58:05;;;;;;;7.25;1.70;;;;;;;;;;4986034;28;20050;-69
2022/08/28 07:00:31;;;;;;;7.18;1.98;;;;;;;;;;5007700;28;20062;-68
2022/08/28 07:02:57;;;;;;;5.97;1.48;;;;;;;;;;4989291;28;20037;-69
2022/08/28 07:05:23;;;;;;;5.90;1.50;;;;;;;;;;5008837;28;20050;-67
2022/08/28 07:07:48;;;;;;;6.28;1.55;;;;;;;;;;5005668;28;20037;-68
2022/08/28 07:10:14;;;;;;;7.25;1.58;;;;;;;;;;5009726;28;20438;-68
2022/08/28 07:12:39;;;;;;;5.60;1.50;;;;;;;;;;4997477;28;20484;-67
2022/08/28 07:15:06;;;;;;;7.93;1.80;;;;;;;;;;5003073;28;20058;-69
2022/08/28 07:17:31;;;;;;;7.45;1.65;;;;;;;;;;5004923;28;20042;-68
2022/08/28 07:19:57;;;;;;;6.68;1.67;;;;;;;;;;5009053;28;20560;-69
2022/08/28 07:22:25;;;;;;;12.38;2.78;;;;;;;;;;4990790;28;20030;-68
2022/08/28 07:24:51;;;;;;;6.47;1.77;;;;;;;;;;5003317;28;20042;-69
2022/08/28 07:27:17;;;;;;;9.93;1.67;;;;;;;;;;5007250;28;20061;-70
2022/08/28 07:29:43;;;;;;;6.47;1.67;;;;;;;;;;5001563;28;20492;-69
2022/08/28 07:32:08;;;;;;;3.47;1.52;;;;;;;;;;5007764;28;20108;-69
2022/08/28 07:34:37;;;;;;;9.48;1.67;;;;;;;;;;5003592;28;20508;-69
2022/08/28 07:37:05;;;;;;;7.07;1.63;;;;;;;;;;5008128;28;20046;-68
2022/08/28 07:39:30;;;;;;;4.72;1.60;;;;;;;;;;5007686;28;20052;-69
2022/08/28 07:41:56;;;;;;;3.28;1.33;;;;;;;;;;5006867;28;20038;-69
2022/08/28 07:47:06;;;;;;;5.90;1.55;;;;;;;;;;5007929;28;20127;-68
2022/08/28 07:49:33;;;;;;;6.22;1.75;;;;;;;;;;5007727;28;20495;-68
2022/08/28 07:51:59;;;;;;;8.07;1.60;;;;;;;;;;5004884;28;20054;-69
2022/08/28 07:54:24;;;;;;;3.65;1.50;;;;;;;;;;5005410;28;20064;-70
2022/08/28 07:56:51;;;;;;;4.50;1.50;;;;;;;;;;5010313;28;20041;-67
2022/08/28 07:59:17;;;;;;;4.57;2.05;;;;;;;;;;5009616;28;20052;-68
2022/08/28 08:01:45;;;;;;;3.90;1.40;;;;;;;;;;5005120;28;20030;-69
2022/08/28 08:04:12;;;;;;;4.28;1.60;;;;;;;;;;5009895;28;20037;-68
2022/08/28 08:06:39;;;;;;;5.20;1.65;;;;;;;;;;5007748;28;20042;-69
2022/08/28 08:09:06;;;;;;;10.05;1.77;;;;;;;;;;5007245;28;20054;-67
2022/08/28 08:11:33;;;;;;;6.10;2.00;;;;;;;;;;5003906;28;20050;-68
2022/08/28 08:14:03;;;;;;;6.18;1.95;;;;;;;;;;5010924;28;20094;-68
2022/08/28 08:16:29;;;;;;;4.43;1.80;;;;;;;;;;5002849;28;20048;-68
2022/08/28 08:18:56;;;;;;;6.25;1.77;;;;;;;;;;5011297;28;20507;-69
2022/08/28 08:21:22;;;;;;;6.00;2.10;;;;;;;;;;4983697;28;20057;-68
2022/08/28 08:23:48;;;;;;;7.88;1.88;;;;;;;;;;5003381;28;20042;-68
2022/08/28 08:26:21;;;;;;;7.90;1.77;;;;;;;;;;5004333;28;20127;-69
2022/08/28 08:28:49;;;;;;;6.38;1.95;;;;;;;;;;5006578;28;20076;-68
2022/08/28 08:31:18;;;;;;;5.65;1.80;;;;;;;;;;5003778;28;20172;-68
2022/08/28 08:33:47;;;;;;;4.50;1.80;;;;;;;;;;5001773;28;20042;-68
2022/08/28 08:36:13;;;;;;;4.03;1.70;;;;;;;;;;5006376;28;20061;-68
2022/08/28 08:38:40;;;;;;;5.85;2.20;;;;;;;;;;5008291;28;20682;-68
2022/08/28 08:41:20;;;;;;;2.58;1.30;;;;;;;;;;5006664;28;20054;-69
2022/08/28 08:44:12;;;;;;;6.78;1.60;;;;;;;;;;5006259;28;20756;-69
2022/08/28 08:47:10;;;;;;;6.30;1.90;;;;;;;;;;5003149;28;20223;-68
2022/08/28 08:49:46;;;;;;;5.75;1.85;;;;;;;;;;5005441;28;20054;-69
2022/08/28 08:52:20;;;;;;;6.07;1.65;;;;;;;;;;5001289;28;20049;-69
2022/08/28 08:55:07;;;;;;;4.90;1.85;;;;;;;;;;5002030;28;20046;-68
2022/08/28 08:57:35;;;;;;;3.50;1.35;;;;;;;;;;5005031;28;20041;-68
2022/08/28 09:00:05;;;;;;;6.22;1.60;;;;;;;;;;5006425;28;20054;-69
2022/08/28 09:02:36;;;;;;;3.80;1.52;;;;;;;;;;4997010;28;20050;-69
2022/08/28 09:05:12;;;;;;;4.95;1.75;;;;;;;;;;5004576;28;20085;-68
2022/08/28 09:07:52;;;;;;;7.03;2.20;;;;;;;;;;5005689;28;20169;-69
2022/08/28 09:10:18;;;;;;;4.60;1.60;;;;;;;;;;4992291;28;20392;-68
2022/08/28 09:12:56;;;;;;;4.40;1.83;;;;;;;;;;5005709;28;20076;-69
2022/08/28 09:15:30;;;;;;;3.70;1.58;;;;;;;;;;5005380;28;20088;-69
2022/08/28 09:18:25;;;;;;;9.35;2.42;;;;;;;;;;5006433;28;20072;-69
2022/08/28 09:20:56;;;;;;;4.97;1.67;;;;;;;;;;5006951;28;20046;-70
2022/08/28 09:23:22;;;;;;;4.00;1.75;;;;;;;;;;4999663;28;20058;-70
2022/08/28 09:25:55;;;;;;;3.55;1.70;;;;;;;;;;4993510;28;20645;-70
2022/08/28 09:28:28;;;;;;;6.15;1.50;;;;;;;;;;5008639;28;20365;-69
2022/08/28 09:30:54;;;;;;;3.50;1.52;;;;;;;;;;5005593;28;20379;-69
2022/08/28 09:33:43;;;;;;;4.65;1.60;;;;;;;;;;5004766;28;20053;-70
2022/08/28 09:36:35;;;;;;;6.00;1.70;;;;;;;;;;5009163;28;20411;-70
2022/08/28 09:39:15;;;;;;;3.45;1.50;;;;;;;;;;4984910;28;20488;-69
2022/08/28 09:44:49;;;;;;;4.00;1.77;;;;;;;;;;5011749;28;20137;-71
2022/08/28 09:47:44;;;;;;;5.82;1.67;;;;;;;;;;5006751;28;20052;-70
2022/08/28 09:50:28;;;;;;;3.22;1.50;;;;;;;;;;5008114;28;20077;-69
2022/08/28 09:52:57;;;;;;;7.65;1.58;;;;;;;;;;5006455;28;20114;-69
2022/08/28 09:55:44;;;;;;;4.00;1.52;;;;;;;;;;5002306;28;20116;-70
2022/08/28 09:58:09;;;;;;;5.25;1.70;;;;;;;;;;5006015;28;20145;-69
2022/08/28 10:00:39;;;;;;;6.25;1.85;;;;;;;;;;5008214;28;20077;-71
2022/08/28 10:03:20;;;;;;;5.60;1.60;;;;;;;;;;4997600;28;20633;-68
2022/08/28 10:05:57;;;;;;;4.78;1.75;;;;;;;;;;5008601;28;20052;-70
2022/08/28 10:08:27;;;;;;;2.08;1.30;;;;;;;;;;5009751;28;20161;-70
2022/08/28 10:10:58;;;;;;;5.18;1.50;;;;;;;;;;5000979;28;20139;-69
2022/08/28 10:13:31;;;;;;;4.70;1.55;;;;;;;;;;5012048;28;20048;-70
2022/08/28 10:16:03;;;;;;;3.88;1.45;;;;;;;;;;5006699;28;20061;-70
2022/08/28 10:18:47;;;;;;;3.63;1.50;;;;;;;;;;5011238;28;20046;-70
2022/08/28 10:21:36;;;;;;;8.32;1.63;;;;;;;;;;5013491;28;20050;-69
2022/08/28 10:24:15;;;;;;;4.85;1.85;;;;;;;;;;5011266;28;20454;-69
2022/08/28 10:27:01;;;;;;;8.30;2.10;;;;;;;;;;5013932;28;20046;-70
2022/08/28 10:29:56;;;;;;;7.38;1.98;;;;;;;;;;4992439;28;20069;-69
2022/08/28 10:32:36;;;;;;;5.15;1.45;;;;;;;;;;4991471;28;20473;-69
2022/08/28 10:35:19;;;;;;;4.40;1.50;;;;;;;;;;5007621;28;20046;-69
2022/08/28 10:38:15;;;;;;;4.53;1.63;;;;;;;;;;5000759;28;20030;-69
2022/08/28 10:40:54;;;;;;;6.93;1.40;;;;;;;;;;5005832;28;20029;-69
2022/08/28 10:43:32;;;;;;;4.10;1.60;;;;;;;;;;5003468;28;20118;-69
2022/08/28 10:46:30;;;;;;;4.85;1.45;;;;;;;;;;5006097;28;20041;-69
2022/08/28 10:49:19;;;;;;;4.03;1.85;;;;;;;;;;5003362;28;20102;-69
2022/08/28 10:51:53;;;;;;;6.72;1.88;;;;;;;;;;4986245;28;20443;-70
2022/08/28 10:54:38;;;;;;;3.15;1.60;;;;;;;;;;5004675;28;20519;-69
2022/08/28 10:57:12;;;;;;;5.68;1.77;;;;;;;;;;5010195;28;20483;-69
2022/08/28 10:59:40;;;;;;;3.67;1.75;;;;;;;;;;5004711;28;20092;-69
2022/08/28 11:02:08;;;;;;;1.98;1.38;;;;;;;;;;5004947;28;20050;-69
2022/08/28 11:04:34;;;;;;;4.70;1.30;;;;;;;;;;5007596;28;20069;-69
2022/08/28 11:07:04;;;;;;;5.20;1.90;;;;;;;;;;5002971;28;20503;-69
2022/08/28 11:09:34;;;;;;;7.93;2.00;;;;;;;;;;5007924;28;20050;-71
2022/08/28 11:12:22;;;;;;;4.30;1.55;;;;;;;;;;5006249;28;20062;-69
2022/08/28 11:14:52;;;;;;;6.30;1.77;;;;;;;;;;4975986;28;20559;-70
2022/08/28 11:17:20;;;;;;;4.60;1.67;;;;;;;;;;5007860;28;20046;-69
2022/08/28 11:20:11;;;;;;;4.50;1.52;;;;;;;;;;4998196;28;20034;-70
2022/08/28 11:22:45;;;;;;;4.38;1.33;;;;;;;;;;5003582;28;20038;-69
2022/08/28 11:25:40;;;;;;;4.22;1.58;;;;;;;;;;5007873;28;20053;-71
2022/08/28 11:28:22;;;;;;;3.00;1.70;;;;;;;;;;5004403;28;20061;-70
2022/08/28 11:31:04;;;;;;;3.85;1.50;;;;;;;;;;4987030;28;20504;-70
2022/08/28 11:33:38;;;;;;;5.28;1.40;;;;;;;;;;5001371;28;20052;-70
2022/08/28 11:36:20;;;;;;;4.88;1.70;;;;;;;;;;5005890;28;20129;-69
2022/08/28 11:38:56;;;;;;;4.55;1.48;;;;;;;;;;4982435;28;20065;-69
2022/08/28 11:41:57;;;;;;;2.72;1.50;;;;;;;;;;4999448;28;20088;-68
2022/08/28 11:44:27;;;;;;;3.92;1.75;;;;;;;;;;4997073;28;20054;-70
2022/08/28 11:46:55;;;;;;;4.32;1.50;;;;;;;;;;4999291;28;20122;-71
2022/08/28 11:49:33;;;;;;;6.45;2.13;;;;;;;;;;5001159;28;20041;-68
2022/08/28 11:52:19;;;;;;;2.17;1.38;;;;;;;;;;4997677;28;20052;-71
2022/08/28 11:55:21;;;;;;;5.05;1.67;;;;;;;;;;5009863;28;20160;-69
2022/08/28 11:58:23;;;;;;;2.43;1.30;;;;;;;;;;5007226;28;20063;-71
2022/08/28 12:01:26;;;;;;;2.80;1.58;;;;;;;;;;5006069;28;20455;-69
2022/08/28 12:04:03;;;;;;;;;;;;;;;;;;4983447;28;20061;-69
2022/08/28 12:06:44;;;;;;;3.22;1.88;;;;;;;;;;4987003;28;20415;-70
2022/08/28 12:09:25;;;;;;;3.13;1.30;;;;;;;;;;4988016;28;20500;-68
2022/08/28 12:12:05;;;;;;;5.95;1.50;;;;;;;;;;5002565;28;20061;-72
2022/08/28 12:14:39;;;;;;;3.55;1.42;;;;;;;;;;5005543;28;20081;-70
2022/08/28 12:17:27;;;;;;;5.97;1.83;;;;;;;;;;5005683;28;20037;-70
2022/08/28 12:20:09;;;;;;;4.63;1.80;;;;;;;;;;5006950;28;20072;-70
2022/08/28 12:22:54;;;;;;;;;;;;;;;;;;5007386;28;20107;-70
2022/08/28 12:25:39;;;;;;;5.15;2.00;;;;;;;;;;4957669;28;19921;-69
2022/08/28 12:28:20;;;;;;;3.53;1.35;;;;;;;;;;4998308;28;20045;-71
2022/08/28 12:30:57;;;;;;;3.20;1.38;;;;;;;;;;4996121;28;20050;-70
2022/08/28 12:33:40;;;;;;;3.42;1.60;;;;;;;;;;4996768;28;20057;-71
2022/08/28 12:36:09;;;;;;;;;;;;;;;;;;4999126;28;20053;-69
2022/08/28 12:38:35;;;;;;;3.70;1.40;;;;;;;;;;5006375;28;19921;-70
2022/08/28 12:41:01;;;;;;;5.07;1.50;;;;;;;;;;5003360;28;20060;-69
2022/08/28 12:43:29;;;;;;;2.80;1.33;;;;;;;;;;5007311;28;20038;-70
2022/08/28 12:46:02;;;;;;;4.82;1.40;;;;;;;;;;5002869;28;20548;-69
2022/08/28 12:48:31;;;;;;;2.65;1.33;;;;;;;;;;5008167;28;20054;-69
2022/08/28 12:50:58;;;;;;;4.45;1.40;;;;;;;;;;5009094;28;20034;-71
2022/08/28 12:53:23;;;;;;;3.55;1.83;;;;;;;;;;5007668;28;20080;-70
2022/08/28 12:55:50;;;;;;;2.72;1.42;;;;;;;;;;5004432;28;20523;-70
2022/08/28 12:58:33;;;;;;;4.53;1.60;;;;;;;;;;5007597;28;20040;-71
2022/08/28 13:01:05;;;;;;;3.65;1.40;;;;;;;;;;5000832;28;20049;-70
2022/08/28 13:03:32;;;;;;;3.30;1.80;;;;;;;;;;5010195;28;20065;-71
2022/08/28 13:06:06;;;;;;;4.57;1.40;;;;;;;;;;5001051;28;20041;-71
2022/08/28 13:08:33;;;;;;;7.43;1.52;;;;;;;;;;4996511;28;21067;-70
2022/08/28 13:11:00;;;;;;;5.75;1.48;;;;;;;;;;5002460;28;20120;-69
2022/08/28 13:13:38;;;;;;;4.53;1.80;;;;;;;;;;4998085;28;20058;-71
2022/08/28 13:16:10;;;;;;;3.28;1.40;;;;;;;;;;4997318;28;20145;-70
2022/08/28 13:18:40;;;;;;;5.30;1.58;;;;;;;;;;5000178;28;20559;-69
2022/08/28 13:21:18;;;;;;;3.08;1.42;;;;;;;;;;5004718;28;20061;-70
2022/08/28 13:23:53;;;;;;;3.90;1.30;;;;;;;;;;5007078;28;20381;-69
2022/08/28 13:26:32;;;;;;;4.32;1.45;;;;;;;;;;5001129;28;20161;-69
2022/08/28 13:29:00;;;;;;;3.08;1.52;;;;;;;;;;5004815;28;20062;-69
2022/08/28 13:31:33;;;;;;;5.72;1.63;;;;;;;;;;4985714;28;20726;-69
2022/08/28 13:34:24;;;;;;;5.68;1.55;;;;;;;;;;4992036;28;20045;-70
2022/08/28 13:37:36;;;;;;;7.63;1.65;;;;;;;;;;5005009;28;20403;-72
2022/08/28 13:40:02;;;;;;;5.30;1.80;;;;;;;;;;4988757;28;20113;-69
2022/08/28 13:42:27;;;;;;;3.92;1.40;;;;;;;;;;5005231;28;21229;-70
2022/08/28 13:44:55;;;;;;;4.40;1.60;;;;;;;;;;4998082;28;20088;-70
2022/08/28 13:47:20;;;;;;;3.92;1.70;;;;;;;;;;5005332;28;20049;-68
2022/08/28 13:49:46;;;;;;;3.33;1.20;;;;;;;;;;5007387;28;20667;-70
2022/08/28 13:52:12;;;;;;;2.90;1.73;;;;;;;;;;5008346;28;20072;-72
2022/08/28 13:54:37;;;;;;;3.83;1.55;;;;;;;;;;5004519;28;20049;-67
2022/08/28 13:57:04;;;;;;;2.13;1.42;;;;;;;;;;5003226;28;20054;-68
2022/08/28 13:59:30;;;;;;;2.92;1.52;;;;;;;;;;5005415;28;20042;-71
2022/08/28 14:04:44;;;;;;;3.30;1.50;;;;;;;;;;5005022;28;20487;-70
2022/08/28 14:07:11;;;;;;;2.28;1.52;;;;;;;;;;5005779;28;20033;-70
2022/08/28 14:09:37;;;;;;;3.42;1.40;;;;;;;;;;5006363;28;20373;-71
2022/08/28 14:12:04;;;;;;;2.47;1.40;;;;;;;;;;5005482;28;20050;-69
2022/08/28 14:14:31;;;;;;;4.68;1.50;;;;;;;;;;5003440;28;20046;-69
2022/08/28 14:16:57;;;;;;;4.07;1.80;;;;;;;;;;4999113;28;20030;-69
2022/08/28 14:19:23;;;;;;;2.47;1.52;;;;;;;;;;5005939;28;20038;-69
2022/08/28 14:21:48;;;;;;;4.88;1.50;;;;;;;;;;5003756;28;20069;-70
2022/08/28 14:24:13;;;;;;;5.32;1.88;;;;;;;;;;5006212;28;20046;-68
2022/08/28 14:26:39;;;;;;;3.65;1.70;;;;;;;;;;5006526;28;20053;-68
2022/08/28 14:29:07;;;;;;;3.88;1.50;;;;;;;;;;5007923;28;20050;-70
2022/08/28 14:31:35;;;;;;;3.53;1.58;;;;;;;;;;5003795;28;20041;-67
2022/08/28 14:34:02;;;;;;;3.90;1.33;;;;;;;;;;4982796;28;21326;-73
2022/08/28 14:36:29;;;;;;;4.45;1.63;;;;;;;;;;5007999;28;21114;-70
2022/08/28 14:38:57;;;;;;;3.50;1.50;;;;;;;;;;5004817;28;20083;-68
2022/08/28 14:41:24;;;;;;;4.72;1.73;;;;;;;;;;5002952;28;20049;-68
2022/08/28 14:43:49;;;;;;;5.03;1.90;;;;;;;;;;5004060;28;20033;-69
2022/08/28 14:46:17;;;;;;;2.85;1.50;;;;;;;;;;5005425;28;20038;-68
2022/08/28 14:48:43;;;;;;;4.00;1.90;;;;;;;;;;5008916;28;20077;-68
2022/08/28 14:51:08;;;;;;;4.55;1.80;;;;;;;;;;4991024;28;20061;-68
2022/08/28 14:53:34;;;;;;;4.68;2.17;;;;;;;;;;5009910;28;20042;-68
2022/08/28 14:55:59;;;;;;;4.95;1.80;;;;;;;;;;5009853;28;20397;-68
2022/08/28 14:58:25;;;;;;;4.78;1.70;;;;;;;;;;5009491;28;20578;-70
2022/08/28 15:00:51;;;;;;;5.25;1.90;;;;;;;;;;5005769;28;20104;-67
2022/08/28 15:03:18;;;;;;;2.70;1.40;;;;;;;;;;4991891;28;20044;-68
2022/08/28 15:05:44;;;;;;;5.45;1.70;;;;;;;;;;5005869;28;20045;-68
2022/08/28 15:08:16;;;;;;;4.97;1.60;;;;;;;;;;5006419;28;20061;-68
2022/08/28 15:10:43;;;;;;;4.18;1.70;;;;;;;;;;5004835;28;20204;-67
2022/08/28 15:13:10;;;;;;;4.65;1.85;;;;;;;;;;5009468;28;20116;-67